sensor_id;sensor_type;location;lat;lon;timestamp;temperature;humidity
46091;DHT22;31826;53.572;10.170;2023-07-13T00:01:43;17.00;99.90
46091;DHT22;31826;53.572;10.170;2023-07-13T00:04:08;17.00;99.90
46091;DHT22;31826;53.572;10.170;2023-07-13T00:06:34;17.10;99.90
46091;DHT22;31826;53.572;10.170;2023-07-13T00:09:01;17.00;99.90
46091;DHT22;31826;53.572;10.170;2023-07-13T00:11:27;17.00;99.90
46091;DHT22;31826;53.572;10.170;2023-07-13T00:13:53;17.00;99.90
46091;DHT22;31826;53.572;10.170;2023-07-13T00:16:18;16.90;99.90
46091;DHT22;31826;53.572;10.170;2023-07-13T00:18:45;16.70;99.90
46091;DHT22;31826;53.572;10.170;2023-07-13T00:21:11;16.60;99.90
46091;DHT22;31826;53.572;10.170;2023-07-13T00:23:39;16.50;99.90
46091;DHT22;31826;53.572;10.170;2023-07-13T00:26:07;16.40;99.90
46091;DHT22;31826;53.572;10.170;2023-07-13T00:28:34;16.40;99.90
46091;DHT22;31826;53.572;10.170;2023-07-13T00:31:00;16.40;99.90
46091;DHT22;31826;53.572;10.170;2023-07-13T00:33:28;16.20;99.90
46091;DHT22;31826;53.572;10.170;2023-07-13T00:35:55;16.20;99.90
46091;DHT22;31826;53.572;10.170;2023-07-13T00:38:21;16.30;99.90
46091;DHT22;31826;53.572;10.170;2023-07-13T00:40:47;16.30;99.90
46091;DHT22;31826;53.572;10.170;2023-07-13T00:43:21;16.30;99.90
46091;DHT22;31826;53.572;10.170;2023-07-13T00:48:16;16.40;99.90
46091;DHT22;31826;53.572;10.170;2023-07-13T00:50:44;16.30;99.90
46091;DHT22;31826;53.572;10.170;2023-07-13T00:53:11;16.40;99.90
46091;DHT22;31826;53.572;10.170;2023-07-13T00:55:37;16.30;99.90
46091;DHT22;31826;53.572;10.170;2023-07-13T00:58:04;16.20;99.90
46091;DHT22;31826;53.572;10.170;2023-07-13T01:00:36;16.20;99.90
46091;DHT22;31826;53.572;10.170;2023-07-13T01:03:04;16.10;99.90
46091;DHT22;31826;53.572;10.170;2023-07-13T01:05:30;16.00;99.90
46091;DHT22;31826;53.572;10.170;2023-07-13T01:07:58;15.90;99.90
46091;DHT22;31826;53.572;10.170;2023-07-13T01:10:25;15.80;99.90
46091;DHT22;31826;53.572;10.170;2023-07-13T01:12:51;15.80;99.90
46091;DHT22;31826;53.572;10.170;2023-07-13T01:18:04;15.70;99.90
46091;DHT22;31826;53.572;10.170;2023-07-13T01:20:30;15.70;99.90
46091;DHT22;31826;53.572;10.170;2023-07-13T01:23:11;15.70;99.90
46091;DHT22;31826;53.572;10.170;2023-07-13T01:25:38;15.60;99.90
46091;DHT22;31826;53.572;10.170;2023-07-13T01:28:06;15.60;99.90
46091;DHT22;31826;53.572;10.170;2023-07-13T01:30:31;15.60;99.90
46091;DHT22;31826;53.572;10.170;2023-07-13T01:32:58;15.60;99.90
46091;DHT22;31826;53.572;10.170;2023-07-13T01:35:24;15.60;99.90
46091;DHT22;31826;53.572;10.170;2023-07-13T01:37:52;15.60;99.90
46091;DHT22;31826;53.572;10.170;2023-07-13T01:40:18;15.60;99.90
46091;DHT22;31826;53.572;10.170;2023-07-13T01:42:45;15.50;99.90
46091;DHT22;31826;53.572;10.170;2023-07-13T01:45:10;15.50;99.90
46091;DHT22;31826;53.572;10.170;2023-07-13T01:47:36;15.40;99.90
46091;DHT22;31826;53.572;10.170;2023-07-13T01:50:02;15.40;99.90
46091;DHT22;31826;53.572;10.170;2023-07-13T01:52:27;15.40;99.90
46091;DHT22;31826;53.572;10.170;2023-07-13T01:54:53;15.50;99.90
46091;DHT22;31826;53.572;10.170;2023-07-13T01:57:19;15.50;99.90
46091;DHT22;31826;53.572;10.170;2023-07-13T01:59:45;15.50;99.90
46091;DHT22;31826;53.572;10.170;2023-07-13T02:02:10;15.50;99.90
46091;DHT22;31826;53.572;10.170;2023-07-13T02:04:36;15.50;99.90
46091;DHT22;31826;53.572;10.170;2023-07-13T02:07:02;15.40;99.90
46091;DHT22;31826;53.572;10.170;2023-07-13T02:09:27;15.40;99.90
46091;DHT22;31826;53.572;10.170;2023-07-13T02:11:53;15.40;99.90
46091;DHT22;31826;53.572;10.170;2023-07-13T02:14:19;15.40;99.90
46091;DHT22;31826;53.572;10.170;2023-07-13T02:16:44;15.40;99.90
46091;DHT22;31826;53.572;10.170;2023-07-13T02:19:10;15.40;99.90
46091;DHT22;31826;53.572;10.170;2023-07-13T02:21:36;15.40;99.90
46091;DHT22;31826;53.572;10.170;2023-07-13T02:24:01;15.40;99.90
46091;DHT22;31826;53.572;10.170;2023-07-13T02:26:27;15.40;99.90
46091;DHT22;31826;53.572;10.170;2023-07-13T02:28:53;15.30;99.90
46091;DHT22;31826;53.572;10.170;2023-07-13T02:31:19;15.40;99.90
46091;DHT22;31826;53.572;10.170;2023-07-13T02:33:45;15.30;99.90
46091;DHT22;31826;53.572;10.170;2023-07-13T02:36:12;15.30;99.90
46091;DHT22;31826;53.572;10.170;2023-07-13T02:38:39;15.30;99.90
46091;DHT22;31826;53.572;10.170;2023-07-13T02:41:07;15.40;99.90
46091;DHT22;31826;53.572;10.170;2023-07-13T02:43:33;15.30;99.90
46091;DHT22;31826;53.572;10.170;2023-07-13T02:46:00;15.30;99.90
46091;DHT22;31826;53.572;10.170;2023-07-13T02:48:36;15.30;99.90
46091;DHT22;31826;53.572;10.170;2023-07-13T02:51:02;15.20;99.90
46091;DHT22;31826;53.572;10.170;2023-07-13T02:53:28;15.20;99.90
46091;DHT22;31826;53.572;10.170;2023-07-13T02:55:54;15.20;99.90
46091;DHT22;31826;53.572;10.170;2023-07-13T02:58:19;15.20;99.90
46091;DHT22;31826;53.572;10.170;2023-07-13T03:00:47;15.20;99.90
46091;DHT22;31826;53.572;10.170;2023-07-13T03:03:14;15.20;99.90
46091;DHT22;31826;53.572;10.170;2023-07-13T03:05:42;15.10;99.90
46091;DHT22;31826;53.572;10.170;2023-07-13T03:08:09;15.10;99.90
46091;DHT22;31826;53.572;10.170;2023-07-13T03:10:35;15.00;99.90
46091;DHT22;31826;53.572;10.170;2023-07-13T03:13:01;15.00;99.90
46091;DHT22;31826;53.572;10.170;2023-07-13T03:15:27;15.00;99.90
46091;DHT22;31826;53.572;10.170;2023-07-13T03:17:52;15.00;99.90
46091;DHT22;31826;53.572;10.170;2023-07-13T03:20:18;14.90;99.90
46091;DHT22;31826;53.572;10.170;2023-07-13T03:22:45;14.80;99.90
46091;DHT22;31826;53.572;10.170;2023-07-13T03:25:11;14.70;99.90
46091;DHT22;31826;53.572;10.170;2023-07-13T03:27:37;14.70;99.90
46091;DHT22;31826;53.572;10.170;2023-07-13T03:30:05;14.70;99.90
46091;DHT22;31826;53.572;10.170;2023-07-13T03:32:31;14.70;99.90
46091;DHT22;31826;53.572;10.170;2023-07-13T03:34:57;14.80;99.90
46091;DHT22;31826;53.572;10.170;2023-07-13T03:37:22;14.70;99.90
46091;DHT22;31826;53.572;10.170;2023-07-13T03:39:48;14.70;99.90
46091;DHT22;31826;53.572;10.170;2023-07-13T03:42:14;14.70;99.90
46091;DHT22;31826;53.572;10.170;2023-07-13T03:44:42;14.80;99.90
46091;DHT22;31826;53.572;10.170;2023-07-13T03:47:11;14.80;99.90
46091;DHT22;31826;53.572;10.170;2023-07-13T03:49:37;14.70;99.90
46091;DHT22;31826;53.572;10.170;2023-07-13T03:52:03;14.70;99.90
46091;DHT22;31826;53.572;10.170;2023-07-13T03:54:29;14.70;99.90
46091;DHT22;31826;53.572;10.170;2023-07-13T03:56:54;14.60;99.90
46091;DHT22;31826;53.572;10.170;2023-07-13T03:59:20;14.50;99.90
46091;DHT22;31826;53.572;10.170;2023-07-13T04:01:46;14.60;99.90
46091;DHT22;31826;53.572;10.170;2023-07-13T04:04:12;14.60;99.90
46091;DHT22;31826;53.572;10.170;2023-07-13T04:06:38;14.70;99.90
46091;DHT22;31826;53.572;10.170;2023-07-13T04:09:04;14.70;99.90
46091;DHT22;31826;53.572;10.170;2023-07-13T04:11:34;14.70;99.90
46091;DHT22;31826;53.572;10.170;2023-07-13T04:14:01;14.80;99.90
46091;DHT22;31826;53.572;10.170;2023-07-13T04:16:27;14.90;99.90
46091;DHT22;31826;53.572;10.170;2023-07-13T04:18:54;15.00;99.90
46091;DHT22;31826;53.572;10.170;2023-07-13T04:21:22;15.00;99.90
46091;DHT22;31826;53.572;10.170;2023-07-13T04:23:48;15.10;99.90
46091;DHT22;31826;53.572;10.170;2023-07-13T04:26:14;15.10;99.90
46091;DHT22;31826;53.572;10.170;2023-07-13T04:28:40;15.20;99.90
46091;DHT22;31826;53.572;10.170;2023-07-13T04:31:05;15.30;99.90
46091;DHT22;31826;53.572;10.170;2023-07-13T04:33:31;15.30;99.90
46091;DHT22;31826;53.572;10.170;2023-07-13T04:35:57;15.20;99.90
46091;DHT22;31826;53.572;10.170;2023-07-13T04:38:26;15.20;99.90
46091;DHT22;31826;53.572;10.170;2023-07-13T04:40:58;15.20;99.90
46091;DHT22;31826;53.572;10.170;2023-07-13T04:43:24;15.30;99.90
46091;DHT22;31826;53.572;10.170;2023-07-13T04:45:51;15.40;99.90
46091;DHT22;31826;53.572;10.170;2023-07-13T04:48:17;15.50;99.90
46091;DHT22;31826;53.572;10.170;2023-07-13T04:50:42;15.60;99.90
46091;DHT22;31826;53.572;10.170;2023-07-13T04:53:09;15.70;99.90
46091;DHT22;31826;53.572;10.170;2023-07-13T04:55:36;15.90;99.90
46091;DHT22;31826;53.572;10.170;2023-07-13T04:58:02;15.90;99.90
46091;DHT22;31826;53.572;10.170;2023-07-13T05:00:28;15.90;99.90
46091;DHT22;31826;53.572;10.170;2023-07-13T05:02:58;16.00;99.90
46091;DHT22;31826;53.572;10.170;2023-07-13T05:05:24;16.10;99.90
46091;DHT22;31826;53.572;10.170;2023-07-13T05:07:51;16.10;99.90
46091;DHT22;31826;53.572;10.170;2023-07-13T05:10:17;16.20;99.90
46091;DHT22;31826;53.572;10.170;2023-07-13T05:12:43;16.20;99.90
46091;DHT22;31826;53.572;10.170;2023-07-13T05:15:09;16.20;99.90
46091;DHT22;31826;53.572;10.170;2023-07-13T05:17:35;16.30;99.90
46091;DHT22;31826;53.572;10.170;2023-07-13T05:20:02;16.30;99.90
46091;DHT22;31826;53.572;10.170;2023-07-13T05:22:28;16.40;99.90
46091;DHT22;31826;53.572;10.170;2023-07-13T05:24:53;16.60;99.90
46091;DHT22;31826;53.572;10.170;2023-07-13T05:27:19;16.60;99.90
46091;DHT22;31826;53.572;10.170;2023-07-13T05:29:45;16.70;99.90
46091;DHT22;31826;53.572;10.170;2023-07-13T05:32:10;16.80;99.90
46091;DHT22;31826;53.572;10.170;2023-07-13T05:34:36;16.90;99.90
46091;DHT22;31826;53.572;10.170;2023-07-13T05:37:02;17.00;99.90
46091;DHT22;31826;53.572;10.170;2023-07-13T05:39:27;17.20;99.90
46091;DHT22;31826;53.572;10.170;2023-07-13T05:41:53;17.30;99.90
46091;DHT22;31826;53.572;10.170;2023-07-13T05:44:19;17.40;99.90
46091;DHT22;31826;53.572;10.170;2023-07-13T05:46:45;17.50;99.90
46091;DHT22;31826;53.572;10.170;2023-07-13T05:49:10;17.70;99.90
46091;DHT22;31826;53.572;10.170;2023-07-13T05:51:36;17.60;99.90
46091;DHT22;31826;53.572;10.170;2023-07-13T05:54:02;17.60;99.90
46091;DHT22;31826;53.572;10.170;2023-07-13T05:56:28;17.50;99.90
46091;DHT22;31826;53.572;10.170;2023-07-13T05:58:54;17.40;99.90
46091;DHT22;31826;53.572;10.170;2023-07-13T06:01:20;17.40;99.90
46091;DHT22;31826;53.572;10.170;2023-07-13T06:03:47;17.50;99.90
46091;DHT22;31826;53.572;10.170;2023-07-13T06:06:12;17.50;99.90
46091;DHT22;31826;53.572;10.170;2023-07-13T06:08:38;17.50;99.90
46091;DHT22;31826;53.572;10.170;2023-07-13T06:11:09;17.40;99.90
46091;DHT22;31826;53.572;10.170;2023-07-13T06:13:35;17.40;99.90
46091;DHT22;31826;53.572;10.170;2023-07-13T06:16:02;17.40;99.90
46091;DHT22;31826;53.572;10.170;2023-07-13T06:18:30;17.40;99.90
46091;DHT22;31826;53.572;10.170;2023-07-13T06:20:56;17.50;99.90
46091;DHT22;31826;53.572;10.170;2023-07-13T06:23:22;17.60;99.90
46091;DHT22;31826;53.572;10.170;2023-07-13T06:25:48;17.70;99.90
46091;DHT22;31826;53.572;10.170;2023-07-13T06:28:14;17.90;99.90
46091;DHT22;31826;53.572;10.170;2023-07-13T06:30:40;17.90;99.90
46091;DHT22;31826;53.572;10.170;2023-07-13T06:33:06;18.00;99.90
46091;DHT22;31826;53.572;10.170;2023-07-13T06:35:31;17.90;99.90
46091;DHT22;31826;53.572;10.170;2023-07-13T06:37:57;17.90;99.90
46091;DHT22;31826;53.572;10.170;2023-07-13T06:40:23;18.00;99.90
46091;DHT22;31826;53.572;10.170;2023-07-13T06:42:49;17.90;99.90
46091;DHT22;31826;53.572;10.170;2023-07-13T06:45:14;17.90;99.90
46091;DHT22;31826;53.572;10.170;2023-07-13T06:47:40;17.90;99.90
46091;DHT22;31826;53.572;10.170;2023-07-13T06:50:07;17.90;99.90
46091;DHT22;31826;53.572;10.170;2023-07-13T06:52:33;18.00;99.90
46091;DHT22;31826;53.572;10.170;2023-07-13T06:54:58;18.10;99.90
46091;DHT22;31826;53.572;10.170;2023-07-13T06:57:24;18.00;99.90
46091;DHT22;31826;53.572;10.170;2023-07-13T06:59:50;18.00;99.90
46091;DHT22;31826;53.572;10.170;2023-07-13T07:02:15;18.10;99.90
46091;DHT22;31826;53.572;10.170;2023-07-13T07:04:41;18.10;99.90
46091;DHT22;31826;53.572;10.170;2023-07-13T07:07:07;18.20;99.90
46091;DHT22;31826;53.572;10.170;2023-07-13T07:09:32;18.20;99.90
46091;DHT22;31826;53.572;10.170;2023-07-13T07:11:58;18.30;99.90
46091;DHT22;31826;53.572;10.170;2023-07-13T07:14:24;18.30;99.90
46091;DHT22;31826;53.572;10.170;2023-07-13T07:16:50;18.20;99.90
46091;DHT22;31826;53.572;10.170;2023-07-13T07:19:16;18.20;99.90
46091;DHT22;31826;53.572;10.170;2023-07-13T07:21:41;18.20;99.90
46091;DHT22;31826;53.572;10.170;2023-07-13T07:24:07;18.30;99.90
46091;DHT22;31826;53.572;10.170;2023-07-13T07:26:33;18.30;99.90
46091;DHT22;31826;53.572;10.170;2023-07-13T07:28:59;18.30;99.90
46091;DHT22;31826;53.572;10.170;2023-07-13T07:31:24;18.30;99.90
46091;DHT22;31826;53.572;10.170;2023-07-13T07:33:50;18.40;99.90
46091;DHT22;31826;53.572;10.170;2023-07-13T07:36:16;18.50;99.90
46091;DHT22;31826;53.572;10.170;2023-07-13T07:38:43;18.60;99.90
46091;DHT22;31826;53.572;10.170;2023-07-13T07:41:09;18.50;99.90
46091;DHT22;31826;53.572;10.170;2023-07-13T07:43:35;18.50;99.90
46091;DHT22;31826;53.572;10.170;2023-07-13T07:46:01;18.70;99.90
46091;DHT22;31826;53.572;10.170;2023-07-13T07:48:27;18.80;99.90
46091;DHT22;31826;53.572;10.170;2023-07-13T07:50:53;18.80;99.90
46091;DHT22;31826;53.572;10.170;2023-07-13T07:53:18;19.00;99.90
46091;DHT22;31826;53.572;10.170;2023-07-13T07:55:44;19.10;99.90
46091;DHT22;31826;53.572;10.170;2023-07-13T07:58:10;19.20;99.90
46091;DHT22;31826;53.572;10.170;2023-07-13T08:00:36;19.20;99.90
46091;DHT22;31826;53.572;10.170;2023-07-13T08:03:02;19.30;99.90
46091;DHT22;31826;53.572;10.170;2023-07-13T08:05:28;19.50;99.90
46091;DHT22;31826;53.572;10.170;2023-07-13T08:07:54;19.40;99.90
46091;DHT22;31826;53.572;10.170;2023-07-13T08:10:20;19.50;99.90
46091;DHT22;31826;53.572;10.170;2023-07-13T08:12:45;19.40;99.90
46091;DHT22;31826;53.572;10.170;2023-07-13T08:15:15;19.50;99.90
46091;DHT22;31826;53.572;10.170;2023-07-13T08:17:41;19.70;99.90
46091;DHT22;31826;53.572;10.170;2023-07-13T08:20:07;19.70;99.90
46091;DHT22;31826;53.572;10.170;2023-07-13T08:22:34;19.80;99.90
46091;DHT22;31826;53.572;10.170;2023-07-13T08:25:00;19.90;99.90
46091;DHT22;31826;53.572;10.170;2023-07-13T08:27:28;20.10;99.90
46091;DHT22;31826;53.572;10.170;2023-07-13T08:29:54;20.50;99.90
46091;DHT22;31826;53.572;10.170;2023-07-13T08:32:21;20.50;99.90
46091;DHT22;31826;53.572;10.170;2023-07-13T08:34:47;20.40;99.90
46091;DHT22;31826;53.572;10.170;2023-07-13T08:37:14;20.20;99.90
46091;DHT22;31826;53.572;10.170;2023-07-13T08:39:39;20.20;99.90
46091;DHT22;31826;53.572;10.170;2023-07-13T08:45:02;20.30;99.90
46091;DHT22;31826;53.572;10.170;2023-07-13T08:47:35;20.50;99.90
46091;DHT22;31826;53.572;10.170;2023-07-13T08:50:03;20.80;99.90
46091;DHT22;31826;53.572;10.170;2023-07-13T08:52:38;20.80;99.90
46091;DHT22;31826;53.572;10.170;2023-07-13T08:55:20;20.80;99.90
46091;DHT22;31826;53.572;10.170;2023-07-13T08:57:50;20.80;99.90
46091;DHT22;31826;53.572;10.170;2023-07-13T09:00:18;20.80;99.90
46091;DHT22;31826;53.572;10.170;2023-07-13T09:02:55;20.80;99.90
46091;DHT22;31826;53.572;10.170;2023-07-13T09:05:30;20.70;99.90
46091;DHT22;31826;53.572;10.170;2023-07-13T09:08:01;20.80;99.90
46091;DHT22;31826;53.572;10.170;2023-07-13T09:10:32;20.80;99.90
46091;DHT22;31826;53.572;10.170;2023-07-13T09:13:25;20.80;99.90
46091;DHT22;31826;53.572;10.170;2023-07-13T09:15:54;20.80;99.90
46091;DHT22;31826;53.572;10.170;2023-07-13T09:20:59;21.40;99.90
46091;DHT22;31826;53.572;10.170;2023-07-13T09:23:28;21.30;99.90
46091;DHT22;31826;53.572;10.170;2023-07-13T09:28:47;20.80;99.90
46091;DHT22;31826;53.572;10.170;2023-07-13T09:31:23;20.80;99.90
46091;DHT22;31826;53.572;10.170;2023-07-13T09:33:49;21.10;99.90
46091;DHT22;31826;53.572;10.170;2023-07-13T09:36:17;21.40;99.90
46091;DHT22;31826;53.572;10.170;2023-07-13T09:38:44;21.80;99.90
46091;DHT22;31826;53.572;10.170;2023-07-13T09:44:13;22.10;99.90
46091;DHT22;31826;53.572;10.170;2023-07-13T09:46:44;22.00;99.90
46091;DHT22;31826;53.572;10.170;2023-07-13T09:49:11;21.80;99.90
46091;DHT22;31826;53.572;10.170;2023-07-13T09:51:41;21.80;99.90
46091;DHT22;31826;53.572;10.170;2023-07-13T09:54:19;22.00;99.90
46091;DHT22;31826;53.572;10.170;2023-07-13T09:56:45;22.20;99.90
46091;DHT22;31826;53.572;10.170;2023-07-13T09:59:22;22.10;99.90
46091;DHT22;31826;53.572;10.170;2023-07-13T10:01:49;22.40;99.90
46091;DHT22;31826;53.572;10.170;2023-07-13T10:04:20;22.40;99.90
46091;DHT22;31826;53.572;10.170;2023-07-13T10:06:46;22.30;99.90
46091;DHT22;31826;53.572;10.170;2023-07-13T10:09:16;22.30;99.80
46091;DHT22;31826;53.572;10.170;2023-07-13T10:11:42;22.50;99.20
46091;DHT22;31826;53.572;10.170;2023-07-13T10:14:14;22.60;97.80
46091;DHT22;31826;53.572;10.170;2023-07-13T10:16:42;22.40;97.70
46091;DHT22;31826;53.572;10.170;2023-07-13T10:19:17;22.50;98.40
46091;DHT22;31826;53.572;10.170;2023-07-13T10:21:55;22.30;98.30
46091;DHT22;31826;53.572;10.170;2023-07-13T10:24:24;22.40;98.00
46091;DHT22;31826;53.572;10.170;2023-07-13T10:27:15;22.70;97.10
46091;DHT22;31826;53.572;10.170;2023-07-13T10:32:31;23.30;96.30
46091;DHT22;31826;53.572;10.170;2023-07-13T10:34:56;23.30;96.40
46091;DHT22;31826;53.572;10.170;2023-07-13T10:37:29;23.10;95.80
46091;DHT22;31826;53.572;10.170;2023-07-13T10:39:57;23.10;96.20
46091;DHT22;31826;53.572;10.170;2023-07-13T10:42:44;23.20;97.40
46091;DHT22;31826;53.572;10.170;2023-07-13T10:45:18;23.20;95.40
46091;DHT22;31826;53.572;10.170;2023-07-13T10:47:45;23.30;96.00
46091;DHT22;31826;53.572;10.170;2023-07-13T10:50:18;23.60;94.70
46091;DHT22;31826;53.572;10.170;2023-07-13T10:52:49;23.40;93.40
46091;DHT22;31826;53.572;10.170;2023-07-13T11:03:55;23.80;94.60
46091;DHT22;31826;53.572;10.170;2023-07-13T11:08:58;24.30;93.70
46091;DHT22;31826;53.572;10.170;2023-07-13T11:13:56;24.30;92.90
46091;DHT22;31826;53.572;10.170;2023-07-13T11:21:33;24.50;91.80
46091;DHT22;31826;53.572;10.170;2023-07-13T11:24:16;24.20;93.00
46091;DHT22;31826;53.572;10.170;2023-07-13T11:31:53;24.60;91.50
46091;DHT22;31826;53.572;10.170;2023-07-13T11:34:34;24.80;90.80
46091;DHT22;31826;53.572;10.170;2023-07-13T11:37:02;24.70;87.90
46091;DHT22;31826;53.572;10.170;2023-07-13T11:39:33;24.60;89.00
46091;DHT22;31826;53.572;10.170;2023-07-13T11:42:03;24.70;90.10
46091;DHT22;31826;53.572;10.170;2023-07-13T11:44:32;24.60;89.70
46091;DHT22;31826;53.572;10.170;2023-07-13T11:46:59;24.50;90.40
46091;DHT22;31826;53.572;10.170;2023-07-13T11:49:31;24.20;90.60
46091;DHT22;31826;53.572;10.170;2023-07-13T11:51:58;24.50;90.70
46091;DHT22;31826;53.572;10.170;2023-07-13T11:54:31;24.70;89.60
46091;DHT22;31826;53.572;10.170;2023-07-13T11:57:02;24.70;89.90
46091;DHT22;31826;53.572;10.170;2023-07-13T11:59:32;24.40;90.00
46091;DHT22;31826;53.572;10.170;2023-07-13T12:01:59;23.90;90.40
46091;DHT22;31826;53.572;10.170;2023-07-13T12:04:28;23.90;91.20
46091;DHT22;31826;53.572;10.170;2023-07-13T12:07:06;23.70;91.40
46091;DHT22;31826;53.572;10.170;2023-07-13T12:09:33;23.60;90.30
46091;DHT22;31826;53.572;10.170;2023-07-13T12:11:59;24.00;90.70
46091;DHT22;31826;53.572;10.170;2023-07-13T12:14:28;24.40;90.40
46091;DHT22;31826;53.572;10.170;2023-07-13T12:16:54;24.70;90.20
46091;DHT22;31826;53.572;10.170;2023-07-13T12:19:26;25.00;89.60
46091;DHT22;31826;53.572;10.170;2023-07-13T12:21:57;25.30;88.90
46091;DHT22;31826;53.572;10.170;2023-07-13T12:24:24;25.30;89.00
46091;DHT22;31826;53.572;10.170;2023-07-13T12:27:02;25.00;88.60
46091;DHT22;31826;53.572;10.170;2023-07-13T12:29:30;24.50;89.40
46091;DHT22;31826;53.572;10.170;2023-07-13T12:31:56;24.10;91.10
46091;DHT22;31826;53.572;10.170;2023-07-13T12:34:24;22.90;93.20
46091;DHT22;31826;53.572;10.170;2023-07-13T12:39:34;19.90;99.90
46091;DHT22;31826;53.572;10.170;2023-07-13T12:42:21;19.10;99.90
46091;DHT22;31826;53.572;10.170;2023-07-13T12:44:50;18.80;99.90
46091;DHT22;31826;53.572;10.170;2023-07-13T12:47:20;18.70;99.90
46091;DHT22;31826;53.572;10.170;2023-07-13T12:50:04;18.90;99.90
46091;DHT22;31826;53.572;10.170;2023-07-13T12:52:35;19.20;99.90
46091;DHT22;31826;53.572;10.170;2023-07-13T12:55:15;19.50;99.90
46091;DHT22;31826;53.572;10.170;2023-07-13T12:57:55;20.00;99.90
46091;DHT22;31826;53.572;10.170;2023-07-13T13:00:27;20.30;99.90
46091;DHT22;31826;53.572;10.170;2023-07-13T13:02:55;20.50;99.90
46091;DHT22;31826;53.572;10.170;2023-07-13T13:05:25;20.50;99.90
46091;DHT22;31826;53.572;10.170;2023-07-13T13:07:51;20.30;99.90
46091;DHT22;31826;53.572;10.170;2023-07-13T13:10:17;20.30;99.90
46091;DHT22;31826;53.572;10.170;2023-07-13T13:12:42;20.30;99.90
46091;DHT22;31826;53.572;10.170;2023-07-13T13:15:09;20.20;99.90
46091;DHT22;31826;53.572;10.170;2023-07-13T13:17:37;20.10;99.90
46091;DHT22;31826;53.572;10.170;2023-07-13T13:20:16;20.00;99.90
46091;DHT22;31826;53.572;10.170;2023-07-13T13:22:42;19.90;99.90
46091;DHT22;31826;53.572;10.170;2023-07-13T13:25:10;19.90;99.90
46091;DHT22;31826;53.572;10.170;2023-07-13T13:27:36;19.80;99.90
46091;DHT22;31826;53.572;10.170;2023-07-13T13:30:03;19.80;99.90
46091;DHT22;31826;53.572;10.170;2023-07-13T13:32:29;19.80;99.90
46091;DHT22;31826;53.572;10.170;2023-07-13T13:34:54;20.10;99.90
46091;DHT22;31826;53.572;10.170;2023-07-13T13:37:22;20.20;99.90
46091;DHT22;31826;53.572;10.170;2023-07-13T13:39:49;20.40;99.90
46091;DHT22;31826;53.572;10.170;2023-07-13T13:42:15;20.30;99.90
46091;DHT22;31826;53.572;10.170;2023-07-13T13:44:41;20.40;99.90
46091;DHT22;31826;53.572;10.170;2023-07-13T13:47:30;20.30;99.90
46091;DHT22;31826;53.572;10.170;2023-07-13T13:49:57;20.30;99.90
46091;DHT22;31826;53.572;10.170;2023-07-13T13:52:23;20.50;99.90
46091;DHT22;31826;53.572;10.170;2023-07-13T13:54:49;20.50;99.90
46091;DHT22;31826;53.572;10.170;2023-07-13T13:57:15;20.50;99.90
46091;DHT22;31826;53.572;10.170;2023-07-13T13:59:41;20.40;99.90
46091;DHT22;31826;53.572;10.170;2023-07-13T14:02:27;20.60;99.90
46091;DHT22;31826;53.572;10.170;2023-07-13T14:04:59;20.50;99.90
46091;DHT22;31826;53.572;10.170;2023-07-13T14:07:25;20.50;99.90
46091;DHT22;31826;53.572;10.170;2023-07-13T14:09:54;20.30;99.90
46091;DHT22;31826;53.572;10.170;2023-07-13T14:12:20;20.30;99.90
46091;DHT22;31826;53.572;10.170;2023-07-13T14:14:46;20.20;99.90
46091;DHT22;31826;53.572;10.170;2023-07-13T14:17:24;20.30;99.90
46091;DHT22;31826;53.572;10.170;2023-07-13T14:19:51;20.40;99.90
46091;DHT22;31826;53.572;10.170;2023-07-13T14:22:20;20.00;99.90
46091;DHT22;31826;53.572;10.170;2023-07-13T14:24:46;19.90;99.90
46091;DHT22;31826;53.572;10.170;2023-07-13T14:27:12;19.90;99.90
46091;DHT22;31826;53.572;10.170;2023-07-13T14:29:38;20.00;99.90
46091;DHT22;31826;53.572;10.170;2023-07-13T14:32:07;20.00;99.90
46091;DHT22;31826;53.572;10.170;2023-07-13T14:34:33;20.00;99.90
46091;DHT22;31826;53.572;10.170;2023-07-13T14:36:59;20.00;99.90
46091;DHT22;31826;53.572;10.170;2023-07-13T14:39:25;20.00;99.90
46091;DHT22;31826;53.572;10.170;2023-07-13T14:41:53;20.20;99.90
46091;DHT22;31826;53.572;10.170;2023-07-13T14:44:29;20.20;99.90
46091;DHT22;31826;53.572;10.170;2023-07-13T14:46:57;20.10;99.90
46091;DHT22;31826;53.572;10.170;2023-07-13T14:51:52;20.20;99.90
46091;DHT22;31826;53.572;10.170;2023-07-13T14:54:18;20.30;99.90
46091;DHT22;31826;53.572;10.170;2023-07-13T14:56:43;20.50;99.90
46091;DHT22;31826;53.572;10.170;2023-07-13T14:59:09;20.60;99.90
46091;DHT22;31826;53.572;10.170;2023-07-13T15:01:36;20.70;99.90
46091;DHT22;31826;53.572;10.170;2023-07-13T15:04:03;20.70;99.90
46091;DHT22;31826;53.572;10.170;2023-07-13T15:06:29;20.70;99.90
46091;DHT22;31826;53.572;10.170;2023-07-13T15:08:57;20.60;99.90
46091;DHT22;31826;53.572;10.170;2023-07-13T15:11:22;20.50;99.90
46091;DHT22;31826;53.572;10.170;2023-07-13T15:13:48;20.50;99.90
46091;DHT22;31826;53.572;10.170;2023-07-13T15:16:25;20.40;99.90
46091;DHT22;31826;53.572;10.170;2023-07-13T15:18:51;20.40;99.90
46091;DHT22;31826;53.572;10.170;2023-07-13T15:21:22;20.40;99.90
46091;DHT22;31826;53.572;10.170;2023-07-13T15:23:49;20.40;99.90
46091;DHT22;31826;53.572;10.170;2023-07-13T15:26:17;20.50;99.90
46091;DHT22;31826;53.572;10.170;2023-07-13T15:28:43;20.90;99.90
46091;DHT22;31826;53.572;10.170;2023-07-13T15:31:22;21.00;99.90
46091;DHT22;31826;53.572;10.170;2023-07-13T15:33:49;21.00;99.90
46091;DHT22;31826;53.572;10.170;2023-07-13T15:36:19;20.90;99.90
46091;DHT22;31826;53.572;10.170;2023-07-13T15:38:47;20.60;99.90
46091;DHT22;31826;53.572;10.170;2023-07-13T15:41:19;20.60;99.90
46091;DHT22;31826;53.572;10.170;2023-07-13T15:43:46;20.50;99.90
46091;DHT22;31826;53.572;10.170;2023-07-13T15:46:12;20.60;99.90
46091;DHT22;31826;53.572;10.170;2023-07-13T15:48:39;20.60;99.90
46091;DHT22;31826;53.572;10.170;2023-07-13T15:51:11;20.50;99.90
46091;DHT22;31826;53.572;10.170;2023-07-13T15:53:39;20.50;99.90
46091;DHT22;31826;53.572;10.170;2023-07-13T15:56:23;20.60;99.90
46091;DHT22;31826;53.572;10.170;2023-07-13T15:58:50;20.80;99.90
46091;DHT22;31826;53.572;10.170;2023-07-13T16:01:16;20.80;99.90
46091;DHT22;31826;53.572;10.170;2023-07-13T16:03:42;20.80;99.90
46091;DHT22;31826;53.572;10.170;2023-07-13T16:06:24;20.80;99.90
46091;DHT22;31826;53.572;10.170;2023-07-13T16:08:51;20.70;99.90